Airfield :
LOGIN :

Register | Disclaimer

   EN    FR    IT 

 










Legend :    VFR   Marginal VFR   IFR   Intensive IFR   Very Intensive IFR
Visi :
Ceiling :
>= 8 km
>= 3000ft
5 to 8 km
1000 to 3000 ft
1500m to 5 km
500 to 1000 ft
800 to 1500m
200 to 500 ft
< 800m
< 200 ft
Symbols :   Thunderstorms  Fog  Heavy snow  Heavy precipitations  Wind > 20 kt
SIGMETs :     Misc.  Thunderstorms  Icing  Turbulence  Mountain Waves  Volcanic Ashes






- Airport Elevation : 245 ft


ETHS - Fassberg

CURRENT METAR :
  • 181920Z 28002KT 9999 FEW030 BKN060 10/08 Q1012 BLU BLU TEMPO BLU+

EXPIRED METARs :
  • 181820Z 30005KT 9999 -SHRA FEW030CB BKN050 10/09 Q1012 BLU BLU TEMPO WHT
  • 181720Z 30012KT 9999 -SHRA SCT030 BKN080 12/07 Q1011 BLU BLU TEMPO WHT

TAF TAF ETHS
Valid from the 18 at 14:00 until the 18 at 23:00 UTC


181322Z 1814/1823 29007KT 9999 NSW SCT030 BKN060
PROB30 1814/1820 31010G20KT 4000 SHRA SCT020 BKN030CB



MET'MAP, your aeronautical weather chart ! - Copyright ORBIFLY December 2007 - Disclaimer

ORBIFLY MET'MAP TEAM :

Programming & Development : Alexandra Zaïnal
Concept & original design : Baudouin d'Aumeries
Assistance for programming : Marc-Olivier Méhu
Technical & hardware support : Manuel Goepfert

Contact : metmap@orbifly.com




SOURCES & CREDITS :

   NOAA